Flight EZE50Q

  • Submitted By: Dave Hardy
  • Departure Airport: Leeds Bradford (EGNM)
  • Arrival Airport: Aberdeen / Dyce (EGPD)
  • Aircraft: JS41 (G-MAJA)
  • Flight Time: 01.20
  • Date Submitted: 03/30/2009
  • Status: Accepted
Flight Details
Gross Revenue:
(20 load / £ 0.00 per unit
£ 0.00
Fuel Cost:
(1541 fuel used @ 0 / unit)
£ 0.00

Flight Details

  • VATAWARE Link: -

Additional Log Information:

View Log

[2009/03/31 18:26:00]
Flight IATA:EZE50Q
Pilot Number:EZE0001
Company ICAO:EZE
Aircraft Type:JS41
PAX:20
Aircraft Registration:JS41
Departing Airport: EGNM
Destination Airport: EGPD
Online: VATSIM
Route:POL P18 ADN
Flight Level:18000
18:26 Zero fuel Weight: 17981 Lbs, Fuel Weight: 5813 Lbs
18:26 VATSIM:EGNM 301920Z 27021KT 9999 SCT016 07/04 Q1019
18:26 VATSIM:EGPD 301920Z 27006KT CAVOK 11/05 Q1013 NOSIG
18:35 Parking Brakes off
18:35 Com1 Freq=120.30
18:49 VR= 131 Knots
18:49 V2= 138 Knots
18:49 Take-off
18:49 Take off Weight: 23716 Lbs
18:49 Wind: 276 @ 020 Knots Heading: 313
18:49 POS N53 52 19 W001 40 09
18:49 N11 36 N12 36
18:49 Gear Up: 139 Knots
18:49 Flaps: at 139 Knots
18:50 Com1 Freq=121.30
18:50 Com1 Freq=123.30
18:50 Com1 Freq=122.30
18:50 Com1 Freq=122.57
18:50 Com1 Freq=122.62
18:50 Com1 Freq=122.67
18:50 Com1 Freq=122.70
18:50 Com1 Freq=122.80
18:51 Flaps: at 175 Knots
18:59 TOC
18:59 Fuel Weight: 5327 Lb
19:04 Wind:310@030 Knots Heading: 005 Ground Speed: 263 Knots Altitude 17992 ft
19:19 Wind:300@040 Knots Heading: 002 Ground Speed: 267 Knots Altitude 17939 ft
19:34 Wind:292@048 Knots Heading: 338 Ground Speed: 271 Knots Altitude 17877 ft
19:36 TOD
19:36 Fuel Weight: 4463 Lb
19:45 Flaps: at 210 Knots
19:45 Flaps: at 200 Knots
19:47 Flaps: at 195 Knots
19:49 Wind:277@006 Knots Heading: 105 Ground Speed: 162 Knots Altitude 2516 ft
19:49 Gear Down: 153 Knots
19:49 Flaps: at 148 Knots
19:49 Flaps: at 153 Knots
19:52 TouchDown:Rate -639 ft/min Speed: 136 Knots
19:52 VATSIM:EGPD 302050Z VRB03KT CAVOK 09/05 Q1014 NOSIG
19:52 Land
19:52 Wind:277@006 Knots
19:52 Heading: 156
19:52 Flight Duration: 01:03
19:52 Landing Weight: 22265 Lbs
19:52 POS N57 11 50 W002 11 39
19:55 Parking brakes on
19:55 Block to Block Duration: 01:20
19:55 Final Fuel: 4272 Lbls
19:55 Spent Fuel: 1541 Lbls
19:55 Flight Length: 253 NM
19:55 TOD Land Length: 52 NM

Route Map